Time;durP1;ratioP1;P1;durP2;ratioP2;P2;SDS_P1;SDS_P2;PMS_P1;PMS_P2;Temp;Humidity;BMP_temperature;BMP_pressure;BME280_temperature;BME280_humidity;BME280_pressure;Samples;Min_cycle;Max_cycle;Signal;HPM_P1;HPM_P2
2022/05/13 00:01:16;;;;;;;7.43;4.33;;;10.90;99.90;;;;;;5114184;28;20192;-83
2022/05/13 00:03:45;;;;;;;7.57;4.90;;;10.80;99.90;;;;;;5113856;28;20245;-83
2022/05/13 00:06:13;;;;;;;9.60;4.97;;;10.80;99.90;;;;;;5114117;28;20301;-83
2022/05/13 00:08:40;;;;;;;7.10;4.97;;;10.70;99.90;;;;;;5111828;28;20196;-82
2022/05/13 00:11:08;;;;;;;9.17;5.20;;;10.70;99.90;;;;;;5093229;28;20254;-83
2022/05/13 00:13:36;;;;;;;10.30;4.83;;;10.60;99.90;;;;;;5093062;28;20224;-82
2022/05/13 00:16:07;;;;;;;9.73;5.03;;;10.50;99.90;;;;;;5104521;28;20193;-85
2022/05/13 00:18:40;;;;;;;8.70;4.73;;;10.50;99.90;;;;;;5117676;28;20212;-85
2022/05/13 00:24:22;;;;;;;7.70;5.30;;;10.30;1.00;;;;;;5117808;28;20216;-86
2022/05/13 00:26:55;;;;;;;7.30;4.73;;;10.30;99.90;;;;;;5117837;28;20206;-85
2022/05/13 00:29:38;;;;;;;9.30;5.57;;;10.20;99.90;;;;;;5117603;28;20211;-86
2022/05/13 00:32:21;;;;;;;8.97;5.73;;;10.20;1.00;;;;;;5117603;28;20184;-85
2022/05/13 00:34:49;;;;;;;12.40;5.67;;;10.20;1.00;;;;;;5106569;28;20195;-83
2022/05/13 00:37:18;;;;;;;7.03;5.20;;;10.20;1.00;;;;;;5093133;28;20197;-84
2022/05/13 00:39:45;;;;;;;10.23;5.17;;;10.10;1.00;;;;;;5102595;28;20186;-83
2022/05/13 00:42:17;;;;;;;9.60;5.77;;;10.10;1.00;;;;;;5113028;28;20656;-83
2022/05/13 00:44:44;;;;;;;6.87;5.30;;;10.10;1.00;;;;;;5104409;28;20176;-83
2022/05/13 00:47:11;;;;;;;10.07;5.50;;;10.10;1.00;;;;;;5092683;28;20215;-83
2022/05/13 00:49:39;;;;;;;9.20;5.70;;;10.10;1.00;;;;;;5092401;28;20198;-83
2022/05/13 00:52:09;;;;;;;7.93;5.30;;;10.00;1.00;;;;;;5092737;28;20198;-84
2022/05/13 00:54:41;;;;;;;9.30;5.17;;;10.00;1.00;;;;;;5092157;28;20704;-83
2022/05/13 00:57:08;;;;;;;12.90;5.67;;;10.00;1.00;;;;;;5092426;28;20652;-83
2022/05/13 00:59:38;;;;;;;8.77;5.87;;;9.90;1.00;;;;;;5091428;28;20283;-83
2022/05/13 01:02:05;;;;;;;9.97;5.50;;;9.90;1.00;;;;;;5092295;28;20243;-83
2022/05/13 01:04:35;;;;;;;14.43;5.70;;;10.00;1.00;;;;;;5092512;28;20278;-83
2022/05/13 01:07:07;;;;;;;9.27;5.33;;;9.90;1.00;;;;;;5092096;28;20671;-83
2022/05/13 01:09:38;;;;;;;8.03;5.67;;;9.90;1.00;;;;;;5103904;28;20193;-83
2022/05/13 01:12:11;;;;;;;7.53;5.17;;;9.90;1.00;;;;;;5112491;28;20636;-83
2022/05/13 01:14:42;;;;;;;9.43;5.40;;;9.90;1.00;;;;;;5093281;28;20227;-83
2022/05/13 01:20:06;;;;;;;10.80;5.50;;;9.90;1.00;;;;;;5092231;28;20628;-83
2022/05/13 01:22:42;;;;;;;7.03;5.17;;;9.80;1.00;;;;;;5092026;28;20286;-83
2022/05/13 01:25:10;;;;;;;8.40;5.20;;;9.80;1.00;;;;;;5091997;28;20188;-83
2022/05/13 01:27:37;;;;;;;7.73;5.20;;;9.80;1.00;;;;;;5092214;28;20202;-83
2022/05/13 01:30:06;;;;;;;8.13;5.17;;;9.70;1.00;;;;;;5108883;28;20274;-83
2022/05/13 01:32:33;;;;;;;8.27;5.23;;;9.80;1.00;;;;;;5110779;28;20273;-84
2022/05/13 01:34:59;;;;;;;8.13;5.33;;;9.80;1.00;;;;;;5112555;28;20294;-83
2022/05/13 01:37:27;;;;;;;9.73;5.30;;;9.70;1.00;;;;;;5112414;28;20306;-83
2022/05/13 01:39:55;;;;;;;9.00;5.50;;;9.70;1.00;;;;;;5112613;28;20195;-83
2022/05/13 01:42:22;;;;;;;9.53;5.40;;;9.80;1.00;;;;;;5112338;28;20236;-83
2022/05/13 01:44:49;;;;;;;9.43;5.80;;;9.70;1.00;;;;;;5112677;28;20230;-83
2022/05/13 01:47:16;;;;;;;9.50;5.60;;;9.70;1.00;;;;;;5112095;28;20230;-83
2022/05/13 01:49:43;;;;;;;8.27;5.73;;;9.70;1.00;;;;;;5095457;28;20224;-84
2022/05/13 01:52:09;;;;;;;9.77;6.10;;;9.70;1.00;;;;;;5092037;28;20198;-84
2022/05/13 01:54:37;;;;;;;9.17;5.70;;;9.60;1.00;;;;;;5092017;28;20260;-83
2022/05/13 01:57:06;;;;;;;6.77;5.17;;;9.60;1.00;;;;;;5099657;28;20211;-83
2022/05/13 01:59:33;;;;;;;9.70;5.70;;;9.60;1.00;;;;;;5112264;28;20203;-83
2022/05/13 02:02:00;;;;;;;9.33;5.73;;;9.50;1.00;;;;;;5111923;28;20285;-84
2022/05/13 02:04:26;;;;;;;9.33;5.40;;;9.50;1.00;;;;;;5111927;28;20659;-83
2022/05/13 02:06:53;;;;;;;9.23;5.43;;;9.40;1.00;;;;;;5112520;28;20298;-83
2022/05/13 02:09:19;;;;;;;6.93;4.77;;;9.30;1.00;;;;;;5112423;28;20215;-84
2022/05/13 02:11:46;;;;;;;12.50;6.10;;;9.30;1.00;;;;;;5115868;28;20190;-84
2022/05/13 02:14:15;;;;;;;9.33;5.80;;;9.30;1.00;;;;;;5115804;28;21030;-84
2022/05/13 02:16:42;;;;;;;9.10;5.43;;;9.20;1.00;;;;;;5115985;28;20693;-83
2022/05/13 02:19:10;;;;;;;11.53;5.57;;;9.20;1.00;;;;;;5115659;28;20642;-84
2022/05/13 02:21:37;;;;;;;7.70;5.30;;;9.10;1.00;;;;;;5115980;28;20199;-84
2022/05/13 02:24:05;;;;;;;7.47;5.60;;;9.00;1.00;;;;;;5115928;28;20243;-84
2022/05/13 02:26:32;;;;;;;10.23;6.00;;;9.00;1.00;;;;;;5111588;28;20229;-83
2022/05/13 02:29:01;;;;;;;8.57;5.67;;;9.00;1.00;;;;;;5095184;28;20228;-84
2022/05/13 02:31:30;;;;;;;9.13;5.63;;;8.90;1.00;;;;;;5095432;28;20283;-84
2022/05/13 02:33:57;;;;;;;9.00;5.50;;;8.90;1.00;;;;;;5095016;28;20189;-83
2022/05/13 02:36:24;;;;;;;6.97;5.60;;;8.80;1.00;;;;;;5095361;28;20697;-84
2022/05/13 02:38:50;;;;;;;6.73;5.27;;;8.80;1.00;;;;;;5095147;28;20662;-83
2022/05/13 02:41:17;;;;;;;8.43;5.17;;;8.70;1.00;;;;;;5095092;28;20226;-83
2022/05/13 02:43:46;;;;;;;8.23;5.10;;;8.70;1.00;;;;;;5094618;28;20685;-84
2022/05/13 02:46:15;;;;;;;9.07;5.63;;;8.60;1.00;;;;;;5100778;28;20224;-84
2022/05/13 02:48:44;;;;;;;12.03;6.00;;;8.60;1.00;;;;;;5115261;28;20290;-83
2022/05/13 02:51:10;;;;;;;8.43;5.80;;;8.50;1.00;;;;;;5115210;28;20668;-84
2022/05/13 02:53:37;;;;;;;8.67;5.60;;;8.50;1.00;;;;;;5115081;28;20258;-84
2022/05/13 02:56:06;;;;;;;7.63;5.43;;;8.50;1.00;;;;;;5114364;28;20231;-84
2022/05/13 02:58:32;;;;;;;12.40;5.90;;;8.50;1.00;;;;;;5114853;28;20696;-84
2022/05/13 03:01:02;;;;;;;8.70;6.00;;;8.40;1.00;;;;;;5115396;28;20227;-84
2022/05/13 03:03:30;;;;;;;12.10;6.33;;;8.40;1.00;;;;;;5114523;28;20645;-84
2022/05/13 03:05:59;;;;;;;11.30;5.70;;;8.30;1.00;;;;;;5114945;28;20188;-84
2022/05/13 03:08:26;;;;;;;7.83;5.63;;;8.30;1.00;;;;;;5115211;28;20202;-84
2022/05/13 03:10:53;;;;;;;10.67;5.27;;;8.30;1.00;;;;;;5115341;28;20228;-84
2022/05/13 03:13:20;;;;;;;9.40;5.73;;;8.30;1.00;;;;;;5117407;28;20224;-85
2022/05/13 03:15:48;;;;;;;7.67;4.90;;;8.30;1.00;;;;;;5122048;28;20266;-84
2022/05/13 03:18:15;;;;;;;9.70;5.10;;;8.30;1.00;;;;;;5114710;28;20227;-84
2022/05/13 03:20:42;;;;;;;7.43;5.30;;;8.30;1.00;;;;;;5114670;28;20202;-84
2022/05/13 03:23:11;;;;;;;8.83;5.07;;;8.30;1.00;;;;;;5119295;28;20261;-84
2022/05/13 03:25:38;;;;;;;10.97;5.73;;;8.40;1.00;;;;;;5118462;28;20243;-85
2022/05/13 03:28:06;;;;;;;7.27;4.80;;;8.40;1.00;;;;;;5116176;28;20221;-86
2022/05/13 03:30:33;;;;;;;8.87;5.47;;;8.50;1.00;;;;;;5119038;28;20289;-83
2022/05/13 03:33:08;;;;;;;7.10;5.50;;;8.50;1.00;;;;;;5118726;28;20188;-85
2022/05/13 03:35:35;;;;;;;8.40;5.27;;;8.60;1.00;;;;;;5117610;28;20633;-83
2022/05/13 03:38:02;;;;;;;7.40;5.17;;;8.70;1.00;;;;;;5114835;28;20267;-83
2022/05/13 03:40:30;;;;;;;7.07;5.33;;;8.70;1.00;;;;;;5119667;28;20261;-87
2022/05/13 03:42:57;;;;;;;6.30;4.93;;;8.80;1.00;;;;;;5118384;28;20205;-86
2022/05/13 03:45:26;;;;;;;9.60;5.20;;;8.90;5.90;;;;;;5114344;28;20273;-88
2022/05/13 03:47:53;;;;;;;9.63;5.07;;;9.00;18.70;;;;;;5115823;28;20221;-88
2022/05/13 03:50:21;;;;;;;8.90;5.00;;;9.20;25.70;;;;;;5119591;28;20578;-83
2022/05/13 03:52:47;;;;;;;7.10;5.20;;;9.20;56.10;;;;;;5116987;28;20569;-83
2022/05/13 03:55:15;;;;;;;9.77;4.97;;;9.40;99.90;;;;;;5114487;28;20257;-87
2022/05/13 03:57:43;;;;;;;7.53;5.13;;;9.90;1.00;;;;;;5115653;28;20217;-85
2022/05/13 04:00:12;;;;;;;6.47;4.47;;;10.50;1.00;;;;;;5115834;28;20285;-88
2022/05/13 04:02:39;;;;;;;5.13;4.10;;;11.10;1.00;;;;;;5118526;28;20654;-85
2022/05/13 04:10:37;;;;;;;4.23;3.37;;;13.40;99.90;;;;;;5117187;28;20267;-88
2022/05/13 04:16:06;;;;;;;6.23;3.70;;;14.90;1.00;;;;;;5114210;28;20215;-87
2022/05/13 04:18:37;;;;;;;7.93;3.43;;;15.60;1.00;;;;;;5111809;28;20770;-85
2022/05/13 04:21:06;;;;;;;4.30;3.47;;;16.20;99.90;;;;;;5116786;28;20632;-89
2022/05/13 04:23:36;;;;;;;5.40;3.20;;;16.60;99.90;;;;;;5131842;28;20216;-88
2022/05/13 04:26:04;;;;;;;6.32;3.75;;;17.10;99.90;;;;;;5111380;28;20343;-88
2022/05/13 04:28:36;;;;;;;4.63;3.47;;;17.60;99.90;;;;;;5111194;28;20206;-91
2022/05/13 04:31:07;;;;;;;5.72;3.85;;;18.10;12.60;;;;;;5125014;28;20195;-88
2022/05/13 04:33:34;;;;;;;5.65;3.47;;;18.60;1.00;;;;;;5131486;28;20233;-89
2022/05/13 04:36:06;;;;;;;4.65;3.58;;;19.00;1.00;;;;;;5131345;28;20198;-88
2022/05/13 04:38:36;;;;;;;5.07;3.13;;;19.00;1.00;;;;;;5131399;28;20219;-89
2022/05/13 04:43:47;;;;;;;3.90;3.45;;;17.80;1.00;;;;;;5130262;28;20204;-89
2022/05/13 04:46:20;;;;;;;4.05;3.65;;;17.10;1.00;;;;;;5135041;28;20202;-87
2022/05/13 04:48:48;;;;;;;11.32;3.35;;;16.90;1.00;;;;;;5135095;28;20182;-85
2022/05/13 04:51:22;;;;;;;6.43;3.58;;;17.50;1.00;;;;;;5115286;28;20198;-87
2022/05/13 04:53:53;;;;;;;25.38;4.40;;;18.20;1.00;;;;;;5102049;28;20227;-86
2022/05/13 04:56:24;;;;;;;6.60;3.80;;;19.10;1.00;;;;;;5097836;28;20185;-85
2022/05/13 04:58:54;;;;;;;4.43;3.40;;;19.30;1.00;;;;;;5117697;28;20244;-85
2022/05/13 05:01:23;;;;;;;4.30;3.33;;;19.40;1.00;;;;;;5116818;28;20578;-84
2022/05/13 05:03:59;;;;;;;7.57;3.40;;;20.10;1.00;;;;;;5118249;28;20201;-89
2022/05/13 05:06:26;;;;;;;7.72;3.90;;;20.70;1.00;;;;;;5118341;28;20271;-85
2022/05/13 05:08:56;;;;;;;3.70;3.10;;;21.40;1.00;;;;;;5118676;28;20242;-86
2022/05/13 05:11:25;;;;;;;5.70;3.22;;;21.70;1.00;;;;;;5117666;28;20060;-89
2022/05/13 05:13:53;;;;;;;6.43;3.65;;;22.00;1.00;;;;;;5119887;28;20210;-85
2022/05/13 05:16:22;;;;;;;5.10;4.00;;;22.00;1.00;;;;;;5113974;28;20193;-86
2022/05/13 05:18:49;;;;;;;5.75;4.07;;;22.10;1.00;;;;;;5117713;28;20037;-84
2022/05/13 05:21:15;;;;;;;5.13;3.42;;;22.20;1.00;;;;;;5112973;28;20227;-84
2022/05/13 05:23:44;;;;;;;5.05;3.17;;;22.50;1.00;;;;;;5112948;28;20281;-83
2022/05/13 05:26:12;;;;;;;4.05;2.90;;;22.50;1.00;;;;;;5112394;28;20667;-84
2022/05/13 05:28:39;;;;;;;5.18;3.30;;;23.00;1.00;;;;;;5115584;28;20686;-86
2022/05/13 05:31:13;;;;;;;6.70;3.45;;;22.90;1.00;;;;;;5113398;28;20281;-85
2022/05/13 05:33:40;;;;;;;12.40;7.45;;;22.70;1.00;;;;;;5114231;28;20189;-86
2022/05/13 05:36:07;;;;;;;6.65;3.50;;;22.40;1.00;;;;;;5115271;28;20195;-84
2022/05/13 05:38:34;;;;;;;4.50;3.78;;;22.50;1.00;;;;;;5112444;28;20289;-84
2022/05/13 05:41:02;;;;;;;6.30;2.95;;;22.50;1.00;;;;;;5115629;28;20227;-83
2022/05/13 05:43:29;;;;;;;5.07;2.80;;;22.40;1.00;;;;;;5106694;28;20627;-83
2022/05/13 05:45:58;;;;;;;3.63;3.15;;;22.30;1.00;;;;;;5097956;28;20274;-86
2022/05/13 05:48:33;;;;;;;4.28;3.03;;;22.40;1.00;;;;;;5105073;28;20219;-86
2022/05/13 05:51:00;;;;;;;5.20;3.25;;;22.20;1.00;;;;;;5102291;28;20267;-85
2022/05/13 05:59:00;;;;;;;5.00;3.00;;;23.50;1.00;;;;;;5098970;28;19972;-84
2022/05/13 06:01:30;;;;;;;11.00;8.40;;;24.90;1.00;;;;;;5103367;28;20088;-87
2022/05/13 06:04:06;;;;;;;4.60;2.63;;;26.00;1.00;;;;;;5107350;28;20204;-86
2022/05/13 06:06:36;;;;;;;4.05;2.42;;;26.80;1.00;;;;;;5102041;28;20175;-85
2022/05/13 06:09:03;;;;;;;3.28;2.55;;;27.30;1.00;;;;;;5103232;28;20656;-85
2022/05/13 06:11:30;;;;;;;4.07;2.42;;;27.70;1.00;;;;;;5102011;28;20176;-85
2022/05/13 06:13:58;;;;;;;3.85;2.28;;;28.10;1.00;;;;;;5107937;28;20250;-84
2022/05/13 06:16:27;;;;;;;4.32;2.50;;;28.40;1.00;;;;;;5118813;28;20234;-86
2022/05/13 06:19:10;;;;;;;4.60;3.40;;;28.60;1.00;;;;;;5119651;28;20198;-86
2022/05/13 06:21:37;;;;;;;;;;;28.90;1.00;;;;;;5119964;28;20063;-89
2022/05/13 06:24:04;;;;;;;;;;;29.30;1.00;;;;;;5120377;28;20008;-88
2022/05/13 06:26:31;;;;;;;;;;;29.70;1.00;;;;;;5120157;28;19926;-84
2022/05/13 06:29:04;;;;;;;3.58;2.17;;;30.00;1.00;;;;;;5122466;28;20180;-85
2022/05/13 06:31:31;;;;;;;3.50;2.13;;;30.20;1.00;;;;;;5120749;28;20199;-89
2022/05/13 06:33:58;;;;;;;6.13;2.10;;;30.60;1.00;;;;;;5125169;28;20082;-86
2022/05/13 06:36:26;;;;;;;4.45;2.28;;;30.90;1.00;;;;;;5124621;28;20681;-86
2022/05/13 06:38:56;;;;;;;4.05;2.30;;;31.20;1.00;;;;;;5123500;28;20183;-86
2022/05/13 06:41:24;;;;;;;3.50;2.45;;;31.50;1.00;;;;;;5119135;28;20202;-85
2022/05/13 06:43:51;;;;;;;4.45;2.15;;;31.70;1.00;;;;;;5106389;28;20283;-86
2022/05/13 06:46:18;;;;;;;9.88;5.85;;;31.80;1.00;;;;;;5095475;28;20270;-86
2022/05/13 06:48:45;;;;;;;3.17;2.33;;;31.90;1.00;;;;;;5098148;28;20344;-90
2022/05/13 06:51:20;;;;;;;3.45;1.98;;;32.10;1.00;;;;;;5098849;28;20218;-85
2022/05/13 06:53:48;;;;;;;2.63;1.85;;;32.40;1.00;;;;;;5097199;28;20219;-85
2022/05/13 06:56:15;;;;;;;3.67;1.90;;;32.90;1.00;;;;;;5098641;28;20217;-88
2022/05/13 06:58:42;;;;;;;5.20;2.95;;;33.50;1.00;;;;;;5101649;28;20635;-86
2022/05/13 07:01:09;;;;;;;3.80;1.83;;;33.90;1.00;;;;;;5096195;28;20746;-85
2022/05/13 07:03:36;;;;;;;8.05;4.85;;;34.10;1.00;;;;;;5100063;28;20227;-88
2022/05/13 07:06:07;;;;;;;8.18;3.72;;;34.30;1.00;;;;;;5099549;28;20225;-85
2022/05/13 07:08:33;;;;;;;4.25;2.67;;;34.50;1.00;;;;;;5098154;28;20568;-88
2022/05/13 07:11:02;;;;;;;5.57;3.10;;;34.90;1.00;;;;;;5097962;28;20277;-87
2022/05/13 07:13:29;;;;;;;2.35;1.60;;;35.30;1.00;;;;;;5102033;28;20267;-85
2022/05/13 07:15:56;;;;;;;4.07;1.90;;;35.70;1.00;;;;;;5115201;28;20222;-86
2022/05/13 07:18:23;;;;;;;8.10;5.75;;;35.60;1.00;;;;;;5114605;28;20685;-85
2022/05/13 07:20:49;;;;;;;9.80;6.45;;;35.50;1.00;;;;;;5114829;28;20669;-84
2022/05/13 07:23:16;;;;;;;2.55;1.65;;;35.80;1.00;;;;;;5115060;28;20273;-87
2022/05/13 07:25:43;;;;;;;3.72;2.17;;;36.00;1.00;;;;;;5120858;28;20213;-86
2022/05/13 07:28:12;;;;;;;2.53;2.30;;;36.10;1.00;;;;;;5120297;28;20301;-84
2022/05/13 07:30:39;;;;;;;4.38;1.92;;;35.80;1.00;;;;;;5115364;28;20196;-86
2022/05/13 07:33:06;;;;;;;4.63;2.15;;;35.60;1.00;;;;;;5116863;28;20244;-85
2022/05/13 07:35:33;;;;;;;6.78;6.10;;;35.70;1.00;;;;;;5119805;28;20751;-87
2022/05/13 07:38:06;;;;;;;2.22;1.50;;;35.60;1.00;;;;;;5120184;28;20226;-87
2022/05/13 07:43:19;;;;;;;3.47;1.60;;;35.80;1.00;;;;;;5117025;28;20211;-85
2022/05/13 07:45:46;;;;;;;3.03;2.10;;;35.90;1.00;;;;;;5119594;28;20239;-85
2022/05/13 07:48:13;;;;;;;2.00;1.40;;;36.00;1.00;;;;;;5118853;28;20187;-84
2022/05/13 07:50:41;;;;;;;2.92;1.70;;;36.20;1.00;;;;;;5116575;28;20202;-86
2022/05/13 07:53:09;;;;;;;4.18;3.60;;;36.30;1.00;;;;;;5099521;28;20199;-86
2022/05/13 07:55:36;;;;;;;3.55;1.85;;;36.40;1.00;;;;;;5100312;28;20308;-84
2022/05/13 07:58:03;;;;;;;3.13;1.80;;;36.40;1.00;;;;;;5102517;28;20708;-85
2022/05/13 08:00:42;;;;;;;5.55;1.52;;;36.20;1.00;;;;;;5094022;28;20327;-86
2022/05/13 08:03:14;;;;;;;4.07;2.97;;;35.90;1.00;;;;;;5093943;28;20190;-85
2022/05/13 08:05:44;;;;;;;5.30;1.90;;;35.60;1.00;;;;;;5095527;28;20180;-88
2022/05/13 08:08:13;;;;;;;7.00;4.55;;;35.50;1.00;;;;;;5093902;28;20191;-85
2022/05/13 08:10:44;;;;;;;5.50;3.45;;;35.40;1.00;;;;;;5075643;28;20303;-84
2022/05/13 08:13:11;;;;;;;8.10;4.95;;;34.80;1.00;;;;;;5093825;28;20266;-85
2022/05/13 08:15:40;;;;;;;9.02;3.20;;;34.40;1.00;;;;;;5097000;28;20195;-87
2022/05/13 08:18:08;;;;;;;4.68;3.40;;;34.30;1.00;;;;;;5098705;28;20191;-88
2022/05/13 08:20:35;;;;;;;4.35;2.90;;;34.10;1.00;;;;;;5096997;28;20187;-87
2022/05/13 08:23:02;;;;;;;3.60;1.67;;;33.60;1.00;;;;;;5112120;28;20227;-87
2022/05/13 08:25:30;;;;;;;3.90;1.67;;;33.00;1.00;;;;;;5095303;28;20192;-87
2022/05/13 08:27:57;;;;;;;4.35;2.65;;;32.20;1.00;;;;;;5101240;28;20203;-87
2022/05/13 08:30:24;;;;;;;4.22;2.78;;;31.60;1.00;;;;;;5098233;28;20574;-86
2022/05/13 08:32:52;;;;;;;2.75;1.90;;;30.90;1.00;;;;;;5093422;28;20223;-84
2022/05/13 08:35:20;;;;;;;5.57;1.80;;;30.50;1.00;;;;;;5092992;28;20282;-84
2022/05/13 08:37:49;;;;;;;3.85;1.80;;;30.20;1.00;;;;;;5093490;28;20195;-84
2022/05/13 08:40:27;;;;;;;3.20;1.70;;;30.00;1.00;;;;;;5093545;28;20196;-86
2022/05/13 08:42:57;;;;;;;4.70;2.35;;;29.90;1.00;;;;;;5106540;28;20193;-88
2022/05/13 08:45:24;;;;;;;6.60;3.88;;;29.70;1.00;;;;;;5121347;28;20225;-87
2022/05/13 08:47:56;;;;;;;;;;;29.30;1.00;;;;;;5118836;28;20171;-85
2022/05/13 08:50:27;;;;;;;5.93;3.10;;;28.70;1.00;;;;;;5119108;28;20185;-84
2022/05/13 08:53:08;;;;;;;;;;;28.10;1.00;;;;;;5120281;28;20033;-89
2022/05/13 08:55:43;;;;;;;8.25;3.90;;;27.40;1.00;;;;;;5119872;28;20673;-86
2022/05/13 08:58:31;;;;;;;7.57;3.50;;;26.90;1.00;;;;;;5116202;28;20193;-87
2022/05/13 09:01:02;;;;;;;9.05;5.70;;;26.80;1.00;;;;;;5118646;28;20642;-88
2022/05/13 09:03:41;;;;;;;11.27;6.93;;;26.50;1.00;;;;;;5117258;28;20189;-84
2022/05/13 09:06:15;;;;;;;10.35;7.43;;;26.20;1.00;;;;;;5122167;28;20270;-85
2022/05/13 09:08:43;;;;;;;5.60;4.03;;;26.00;1.00;;;;;;5116897;28;20218;-87
2022/05/13 09:11:21;;;;;;;10.15;6.10;;;25.90;1.00;;;;;;5118870;28;20252;-88
2022/05/13 09:13:59;;;;;;;4.60;3.85;;;25.80;1.00;;;;;;5118004;28;20269;-85
2022/05/13 09:16:40;;;;;;;5.22;3.40;;;25.60;1.00;;;;;;5120994;28;20179;-83
2022/05/13 09:19:16;;;;;;;5.95;3.92;;;25.60;1.00;;;;;;5117051;28;20277;-86
2022/05/13 09:21:44;;;;;;;10.35;5.13;;;25.50;1.00;;;;;;5113213;28;20186;-86
2022/05/13 09:24:14;;;;;;;6.10;2.40;;;25.20;1.00;;;;;;5096293;28;20192;-84
2022/05/13 09:26:43;;;;;;;4.43;3.10;;;24.90;1.00;;;;;;5099020;28;20209;-86
2022/05/13 09:29:12;;;;;;;6.43;4.43;;;24.60;1.00;;;;;;5095975;28;20215;-84
2022/05/13 09:31:40;;;;;;;;;;;24.30;1.00;;;;;;5098582;28;20085;-85
2022/05/13 09:34:32;;;;;;;5.53;3.22;;;23.80;1.00;;;;;;5094358;28;20221;-88
2022/05/13 09:37:07;;;;;;;4.38;3.50;;;23.50;1.00;;;;;;5098842;28;20195;-86
2022/05/13 09:39:36;;;;;;;10.10;3.33;;;23.20;1.00;;;;;;5097174;28;20191;-89
2022/05/13 09:42:19;;;;;;;6.75;4.47;;;23.20;1.00;;;;;;5096642;28;20572;-83
2022/05/13 09:44:46;;;;;;;5.30;3.00;;;23.30;1.00;;;;;;5117228;28;20176;-85
2022/05/13 09:47:15;;;;;;;8.20;2.75;;;23.40;1.00;;;;;;5117298;28;20191;-86
2022/05/13 09:49:47;;;;;;;4.07;2.80;;;23.50;1.00;;;;;;5116401;28;20210;-82
2022/05/13 09:52:17;;;;;;;3.70;2.60;;;23.50;1.00;;;;;;5117852;28;20159;-85
2022/05/13 09:54:52;;;;;;;4.18;3.47;;;23.50;1.00;;;;;;5119175;28;20234;-84
2022/05/13 09:57:31;;;;;;;5.38;4.00;;;23.50;1.00;;;;;;5117463;28;20269;-84
2022/05/13 10:00:04;;;;;;;7.53;5.97;;;23.40;1.00;;;;;;5115295;28;20214;-87
2022/05/13 10:02:35;;;;;;;13.90;9.40;;;23.20;1.00;;;;;;5110929;28;20187;-86
2022/05/13 10:05:17;;;;;;;10.35;7.93;;;23.00;1.00;;;;;;5096421;28;20187;-84
2022/05/13 10:07:56;;;;;;;5.50;4.95;;;22.70;1.00;;;;;;5099431;28;20249;-85
2022/05/13 10:16:01;;;;;;;7.22;4.60;;;22.10;1.00;;;;;;5098653;28;20183;-84
2022/05/13 10:18:30;;;;;;;9.02;6.55;;;21.90;1.00;;;;;;5098135;28;20188;-85
2022/05/13 10:21:04;;;;;;;7.25;5.30;;;21.80;1.00;;;;;;5100105;28;20650;-83
2022/05/13 10:23:36;;;;;;;8.13;4.75;;;21.80;1.00;;;;;;5092223;28;20278;-84
2022/05/13 10:26:07;;;;;;;6.95;4.80;;;21.90;1.00;;;;;;5092094;28;20266;-84
2022/05/13 10:28:39;;;;;;;5.53;4.72;;;22.10;1.00;;;;;;5094089;28;20180;-84
2022/05/13 10:31:11;;;;;;;8.32;5.00;;;22.30;1.00;;;;;;5094558;28;20203;-84
2022/05/13 10:33:43;;;;;;;6.93;5.53;;;22.50;1.00;;;;;;5101154;28;20183;-82
2022/05/13 10:36:18;;;;;;;7.32;4.68;;;22.60;1.00;;;;;;5100680;28;20186;-84
2022/05/13 10:38:51;;;;;;;8.75;4.35;;;22.80;1.00;;;;;;5102729;28;20231;-85
2022/05/13 10:41:26;;;;;;;5.45;4.65;;;22.90;1.00;;;;;;5103999;28;20229;-86
2022/05/13 10:43:59;;;;;;;7.35;4.72;;;23.10;1.00;;;;;;5103683;28;20317;-86
2022/05/13 10:46:33;;;;;;;6.47;4.57;;;23.20;1.00;;;;;;5103340;28;20582;-83
2022/05/13 10:49:05;;;;;;;9.30;5.60;;;23.50;1.00;;;;;;5105353;28;20184;-88
2022/05/13 10:51:44;;;;;;;7.07;5.22;;;23.90;1.00;;;;;;5103276;28;20207;-85
2022/05/13 10:54:38;;;;;;;13.23;5.13;;;24.20;1.00;;;;;;5103242;28;20230;-85
2022/05/13 10:57:16;;;;;;;13.05;5.80;;;24.20;1.00;;;;;;5095438;28;20220;-86
2022/05/13 11:00:09;;;;;;;10.23;4.65;;;24.10;1.00;;;;;;5099118;28;20218;-84
2022/05/13 11:03:00;;;;;;;5.95;4.25;;;23.90;1.00;;;;;;5102337;28;20176;-85
2022/05/13 11:05:36;;;;;;;6.40;4.68;;;23.80;1.00;;;;;;5105386;28;20271;-85
2022/05/13 11:08:25;;;;;;;6.97;4.50;;;23.70;1.00;;;;;;5104353;28;20227;-83
2022/05/13 11:11:16;;;;;;;8.75;5.10;;;23.50;1.00;;;;;;5103246;28;20295;-84
2022/05/13 11:14:00;;;;;;;10.38;5.88;;;23.30;1.00;;;;;;5120793;28;20187;-84
2022/05/13 11:16:42;;;;;;;7.65;5.60;;;23.00;1.00;;;;;;5123613;28;20217;-86
2022/05/13 11:19:19;;;;;;;8.57;6.00;;;22.90;1.00;;;;;;5119692;28;20654;-82
2022/05/13 11:21:51;;;;;;;9.57;5.60;;;22.70;1.00;;;;;;5115151;28;20214;-82
2022/05/13 11:27:25;;;;;;;8.85;6.50;;;22.50;1.00;;;;;;5098122;28;20198;-83
2022/05/13 11:29:59;;;;;;;8.18;6.65;;;22.40;1.00;;;;;;5114635;28;20209;-82
2022/05/13 11:32:32;;;;;;;9.35;6.57;;;22.30;1.00;;;;;;5114977;28;20269;-83
2022/05/13 11:35:15;;;;;;;10.40;7.00;;;22.20;1.00;;;;;;5117032;28;20190;-84
2022/05/13 11:37:52;;;;;;;131.20;87.95;;;22.10;1.00;;;;;;5114986;28;20206;-82
2022/05/13 11:40:28;;;;;;;11.88;6.35;;;22.10;1.00;;;;;;5119895;28;20188;-85
2022/05/13 11:43:25;;;;;;;8.93;5.40;;;22.10;1.00;;;;;;5103332;28;20207;-84
2022/05/13 11:46:28;;;;;;;6.07;4.22;;;22.30;1.00;;;;;;5099376;28;20544;-83
2022/05/13 11:49:02;;;;;;;9.30;3.25;;;22.60;1.00;;;;;;5105367;28;20190;-84
2022/05/13 11:51:32;;;;;;;6.38;3.40;;;22.70;1.00;;;;;;5113471;28;20200;-84
2022/05/13 11:54:24;;;;;;;6.32;3.30;;;22.70;1.00;;;;;;5119662;28;20227;-83
2022/05/13 11:57:21;;;;;;;6.43;3.22;;;22.50;1.00;;;;;;5119127;28;20241;-85
2022/05/13 11:59:51;;;;;;;5.50;2.60;;;22.50;1.00;;;;;;5119362;28;20183;-83
2022/05/13 12:02:34;;;;;;;4.70;2.67;;;22.40;1.00;;;;;;5114326;28;20198;-82
2022/05/13 12:05:27;;;;;;;8.45;2.90;;;22.30;1.00;;;;;;5116792;28;20190;-84
2022/05/13 12:08:02;;;;;;;4.47;3.05;;;22.20;1.00;;;;;;5117237;28;20180;-83
2022/05/13 12:10:39;;;;;;;6.80;3.00;;;22.00;1.00;;;;;;5117788;28;20203;-83
2022/05/13 12:13:26;;;;;;;6.13;2.42;;;21.90;1.00;;;;;;5113320;28;20175;-85
2022/05/13 12:16:26;;;;;;;5.07;1.90;;;21.90;1.00;;;;;;5117926;28;20691;-83
2022/05/13 12:19:00;;;;;;;6.32;2.10;;;22.10;1.00;;;;;;5112723;28;20277;-81
2022/05/13 12:21:37;;;;;;;3.92;2.10;;;22.00;1.00;;;;;;5112342;28;20217;-83
2022/05/13 12:24:16;;;;;;;5.20;1.90;;;21.90;1.00;;;;;;5117849;28;20687;-82
2022/05/13 12:27:07;;;;;;;4.95;1.70;;;21.80;1.00;;;;;;5115582;28;20224;-83
2022/05/13 12:29:56;;;;;;;5.00;1.80;;;21.90;1.00;;;;;;5117371;28;20183;-83
2022/05/13 12:32:35;;;;;;;4.68;1.77;;;22.00;1.00;;;;;;5113579;28;20203;-83
2022/05/13 12:38:06;;;;;;;6.20;2.20;;;22.30;1.00;;;;;;5094436;28;20171;-83
2022/05/13 12:40:37;;;;;;;2.65;1.92;;;22.60;1.00;;;;;;5109402;28;20277;-83
2022/05/13 12:43:15;;;;;;;3.30;2.20;;;22.80;1.00;;;;;;5113142;28;20187;-83
2022/05/13 12:45:58;;;;;;;4.32;2.50;;;22.70;1.00;;;;;;5115788;28;20183;-82
2022/05/13 12:48:25;;;;;;;8.00;2.30;;;22.40;1.00;;;;;;5113556;28;20197;-84
2022/05/13 12:50:54;;;;;;;5.80;2.30;;;22.10;1.00;;;;;;5112841;28;20301;-83
2022/05/13 12:53:42;;;;;;;4.95;2.25;;;21.90;1.00;;;;;;5112667;28;20180;-83
2022/05/13 12:56:34;;;;;;;6.15;2.35;;;21.70;1.00;;;;;;5110210;28;20620;-83
2022/05/13 12:59:07;;;;;;;2.30;2.00;;;21.60;1.00;;;;;;5110921;28;20236;-83
2022/05/13 13:01:36;;;;;;;3.63;1.85;;;21.40;1.00;;;;;;5092924;28;20201;-83
2022/05/13 13:04:08;;;;;;;5.72;2.42;;;21.10;1.00;;;;;;5097173;28;20209;-82
2022/05/13 13:06:44;;;;;;;6.22;2.33;;;21.00;1.00;;;;;;5099735;28;20209;-81
2022/05/13 13:09:21;;;;;;;5.72;2.10;;;20.90;1.00;;;;;;5117512;28;20639;-82
2022/05/13 13:11:58;;;;;;;7.90;2.03;;;20.80;1.00;;;;;;5112905;28;20762;-82
2022/05/13 13:14:40;;;;;;;2.85;2.10;;;20.60;1.00;;;;;;5115742;28;20221;-84
2022/05/13 13:17:19;;;;;;;5.00;2.30;;;20.50;1.00;;;;;;5113834;28;20185;-83
2022/05/13 13:19:48;;;;;;;6.18;1.90;;;20.40;1.00;;;;;;5117791;28;20182;-83
2022/05/13 13:22:20;;;;;;;3.85;2.42;;;20.40;1.00;;;;;;5115280;28;20199;-84
2022/05/13 13:24:48;;;;;;;3.38;2.10;;;20.50;1.00;;;;;;5114905;28;20186;-82
2022/05/13 13:27:18;;;;;;;4.15;2.35;;;20.50;1.00;;;;;;5120539;28;20221;-84
2022/05/13 13:29:47;;;;;;;5.13;2.30;;;20.40;1.00;;;;;;5112831;28;20185;-83
2022/05/13 13:32:18;;;;;;;5.53;2.10;;;20.30;1.00;;;;;;5112808;28;20198;-83
2022/05/13 13:34:52;;;;;;;3.25;2.00;;;20.20;1.00;;;;;;5112900;28;20214;-83
2022/05/13 13:37:22;;;;;;;4.75;1.95;;;20.00;1.00;;;;;;5118648;28;20262;-81
2022/05/13 13:39:49;;;;;;;4.40;2.30;;;19.80;1.00;;;;;;5116715;28;20218;-84
2022/05/13 13:42:19;;;;;;;3.42;2.05;;;19.70;1.00;;;;;;5114966;28;20195;-84
2022/05/13 13:44:50;;;;;;;8.27;2.25;;;19.50;1.00;;;;;;5112475;28;20659;-83
2022/05/13 13:47:30;;;;;;;3.80;2.15;;;19.40;1.00;;;;;;5117713;28;20228;-83
2022/05/13 13:49:58;;;;;;;6.85;3.03;;;19.30;1.00;;;;;;5092345;28;20270;-83
2022/05/13 13:52:34;;;;;;;6.63;3.10;;;19.10;1.00;;;;;;5097061;28;20283;-82
2022/05/13 13:55:09;;;;;;;5.90;4.28;;;19.00;1.00;;;;;;5114492;28;20350;-86
2022/05/13 13:58:00;;;;;;;7.13;4.47;;;18.90;1.00;;;;;;5112265;28;20734;-82
2022/05/13 14:00:36;;;;;;;8.52;3.70;;;18.80;1.00;;;;;;5109648;28;20240;-82